sensor_id;sensor_type;location;lat;lon;timestamp;pressure;altitude;pressure_sealevel;temperature;humidity
77062;BME280;65989;51.686;5.138;2023-03-14T00:01:50;99047.78;;;10.64;78.57
77062;BME280;65989;51.686;5.138;2023-03-14T00:04:15;99045.41;;;10.63;78.57
77062;BME280;65989;51.686;5.138;2023-03-14T00:06:41;99046.50;;;10.61;78.62
77062;BME280;65989;51.686;5.138;2023-03-14T00:09:06;99056.63;;;10.59;78.67
77062;BME280;65989;51.686;5.138;2023-03-14T00:11:32;99059.28;;;10.59;78.79
77062;BME280;65989;51.686;5.138;2023-03-14T00:13:57;99058.78;;;10.57;78.89
77062;BME280;65989;51.686;5.138;2023-03-14T00:16:24;99054.84;;;10.55;79.01
77062;BME280;65989;51.686;5.138;2023-03-14T00:18:50;99049.88;;;10.53;78.80
77062;BME280;65989;51.686;5.138;2023-03-14T00:21:15;99055.66;;;10.55;78.89
77062;BME280;65989;51.686;5.138;2023-03-14T00:23:41;99062.31;;;10.53;78.78
77062;BME280;65989;51.686;5.138;2023-03-14T00:26:12;99054.84;;;10.55;78.67
77062;BME280;65989;51.686;5.138;2023-03-14T00:28:40;99058.31;;;10.55;78.64
77062;BME280;65989;51.686;5.138;2023-03-14T00:31:07;99057.81;;;10.53;78.36
77062;BME280;65989;51.686;5.138;2023-03-14T00:33:33;99050.16;;;10.52;77.88
77062;BME280;65989;51.686;5.138;2023-03-14T00:36:01;99049.88;;;10.53;77.74
77062;BME280;65989;51.686;5.138;2023-03-14T00:38:26;99052.78;;;10.52;77.46
77062;BME280;65989;51.686;5.138;2023-03-14T00:40:52;99046.25;;;10.49;77.15
77062;BME280;65989;51.686;5.138;2023-03-14T00:43:18;99048.88;;;10.49;76.98
77062;BME280;65989;51.686;5.138;2023-03-14T00:45:47;99045.44;;;10.49;76.52
77062;BME280;65989;51.686;5.138;2023-03-14T00:48:12;99045.44;;;10.49;76.38
77062;BME280;65989;51.686;5.138;2023-03-14T00:50:38;99058.19;;;10.46;76.08
77062;BME280;65989;51.686;5.138;2023-03-14T00:53:04;99047.91;;;10.45;75.85
77062;BME280;65989;51.686;5.138;2023-03-14T00:55:29;99049.47;;;10.46;76.06
77062;BME280;65989;51.686;5.138;2023-03-14T00:57:55;99049.59;;;10.41;76.19
77062;BME280;65989;51.686;5.138;2023-03-14T01:00:20;99043.50;;;10.40;76.17
77062;BME280;65989;51.686;5.138;2023-03-14T01:02:45;99043.78;;;10.39;76.53
77062;BME280;65989;51.686;5.138;2023-03-14T01:05:11;99049.09;;;10.39;75.99
77062;BME280;65989;51.686;5.138;2023-03-14T01:07:37;99048.28;;;10.38;76.01
77062;BME280;65989;51.686;5.138;2023-03-14T01:10:04;99048.56;;;10.37;76.17
77062;BME280;65989;51.686;5.138;2023-03-14T01:12:29;99049.66;;;10.36;76.34
77062;BME280;65989;51.686;5.138;2023-03-14T01:14:55;99051.75;;;10.39;76.31
77062;BME280;65989;51.686;5.138;2023-03-14T01:17:20;99054.38;;;10.39;76.17
77062;BME280;65989;51.686;5.138;2023-03-14T01:19:46;99051.81;;;10.34;76.21
77062;BME280;65989;51.686;5.138;2023-03-14T01:22:12;99055.84;;;10.31;76.46
77062;BME280;65989;51.686;5.138;2023-03-14T01:24:37;99070.34;;;10.34;76.31
77062;BME280;65989;51.686;5.138;2023-03-14T01:27:03;99068.41;;;10.25;76.78
77062;BME280;65989;51.686;5.138;2023-03-14T01:29:28;99062.13;;;10.21;77.09
77062;BME280;65989;51.686;5.138;2023-03-14T01:31:54;99055.63;;;10.13;77.46
77062;BME280;65989;51.686;5.138;2023-03-14T01:34:19;99059.84;;;10.00;77.93
77062;BME280;65989;51.686;5.138;2023-03-14T01:36:44;99056.03;;;9.93;78.53
77062;BME280;65989;51.686;5.138;2023-03-14T01:39:10;99056.69;;;9.84;78.91
77062;BME280;65989;51.686;5.138;2023-03-14T01:41:35;99040.91;;;9.79;79.32
77062;BME280;65989;51.686;5.138;2023-03-14T01:44:00;99030.94;;;9.76;79.82
77062;BME280;65989;51.686;5.138;2023-03-14T01:49:06;99031.78;;;9.71;80.02
77062;BME280;65989;51.686;5.138;2023-03-14T01:51:57;99035.50;;;9.70;80.08
77062;BME280;65989;51.686;5.138;2023-03-14T01:54:37;99039.22;;;9.69;80.05
77062;BME280;65989;51.686;5.138;2023-03-14T01:59:32;99035.22;;;9.72;80.05
77062;BME280;65989;51.686;5.138;2023-03-14T02:01:58;99031.69;;;9.63;80.43
77062;BME280;65989;51.686;5.138;2023-03-14T02:04:28;99027.34;;;9.53;80.84
77062;BME280;65989;51.686;5.138;2023-03-14T02:07:05;99022.72;;;9.45;80.95
77062;BME280;65989;51.686;5.138;2023-03-14T02:09:34;99008.81;;;9.39;81.30
77062;BME280;65989;51.686;5.138;2023-03-14T02:11:59;99001.25;;;9.32;81.38
77062;BME280;65989;51.686;5.138;2023-03-14T02:14:32;99009.47;;;9.31;81.58
77062;BME280;65989;51.686;5.138;2023-03-14T02:17:00;99001.53;;;9.31;81.86
77062;BME280;65989;51.686;5.138;2023-03-14T02:22:07;98998.72;;;9.27;82.11
77062;BME280;65989;51.686;5.138;2023-03-14T02:24:45;98996.16;;;9.22;81.87
77062;BME280;65989;51.686;5.138;2023-03-14T02:27:18;98991.44;;;9.19;82.11
77062;BME280;65989;51.686;5.138;2023-03-14T02:29:53;98996.16;;;9.22;81.92
77062;BME280;65989;51.686;5.138;2023-03-14T02:32:21;98992.13;;;9.24;81.77
77062;BME280;65989;51.686;5.138;2023-03-14T02:34:50;98983.31;;;9.29;81.85
77062;BME280;65989;51.686;5.138;2023-03-14T02:37:19;98995.38;;;9.35;81.75
77062;BME280;65989;51.686;5.138;2023-03-14T02:39:46;98996.09;;;9.41;81.39
77062;BME280;65989;51.686;5.138;2023-03-14T02:42:13;98989.13;;;9.45;81.25
77062;BME280;65989;51.686;5.138;2023-03-14T02:47:29;98980.34;;;9.50;81.14
77062;BME280;65989;51.686;5.138;2023-03-14T02:50:07;98980.63;;;9.48;81.03
77062;BME280;65989;51.686;5.138;2023-03-14T02:52:33;98987.28;;;9.46;81.03
77062;BME280;65989;51.686;5.138;2023-03-14T02:54:58;98984.63;;;9.46;80.84
77062;BME280;65989;51.686;5.138;2023-03-14T02:57:24;98979.63;;;9.44;80.90
77062;BME280;65989;51.686;5.138;2023-03-14T02:59:49;98980.91;;;9.47;80.70
77062;BME280;65989;51.686;5.138;2023-03-14T03:02:15;98980.63;;;9.48;80.66
77062;BME280;65989;51.686;5.138;2023-03-14T03:04:40;98980.25;;;9.55;80.91
77062;BME280;65989;51.686;5.138;2023-03-14T03:07:06;98980.25;;;9.55;80.65
77062;BME280;65989;51.686;5.138;2023-03-14T03:09:31;98985.25;;;9.56;80.62
77062;BME280;65989;51.686;5.138;2023-03-14T03:11:56;98976.81;;;9.54;80.51
77062;BME280;65989;51.686;5.138;2023-03-14T03:14:22;98975.47;;;9.57;80.47
77062;BME280;65989;51.686;5.138;2023-03-14T03:16:47;98968.09;;;9.54;80.43
77062;BME280;65989;51.686;5.138;2023-03-14T03:19:13;98969.19;;;9.53;80.44
77062;BME280;65989;51.686;5.138;2023-03-14T03:21:39;98973.69;;;9.52;80.50
77062;BME280;65989;51.686;5.138;2023-03-14T03:24:04;98979.75;;;9.53;80.49
77062;BME280;65989;51.686;5.138;2023-03-14T03:26:30;98975.81;;;9.50;80.66
77062;BME280;65989;51.686;5.138;2023-03-14T03:28:55;98975.06;;;9.50;80.69
77062;BME280;65989;51.686;5.138;2023-03-14T03:31:21;98981.13;;;9.50;80.69
77062;BME280;65989;51.686;5.138;2023-03-14T03:33:47;98970.75;;;9.54;80.67
77062;BME280;65989;51.686;5.138;2023-03-14T03:36:12;98969.78;;;9.50;80.76
77062;BME280;65989;51.686;5.138;2023-03-14T03:38:37;98973.69;;;9.52;80.68
77062;BME280;65989;51.686;5.138;2023-03-14T03:41:05;98967.91;;;9.50;80.62
77062;BME280;65989;51.686;5.138;2023-03-14T03:43:30;98962.59;;;9.50;80.75
77062;BME280;65989;51.686;5.138;2023-03-14T03:45:56;98962.59;;;9.50;80.60
77062;BME280;65989;51.686;5.138;2023-03-14T03:48:21;98958.13;;;9.51;80.66
77062;BME280;65989;51.686;5.138;2023-03-14T03:50:47;98960.75;;;9.51;80.58
77062;BME280;65989;51.686;5.138;2023-03-14T03:53:12;98958.69;;;9.48;80.53
77062;BME280;65989;51.686;5.138;2023-03-14T03:55:43;98960.53;;;9.47;80.66
77062;BME280;65989;51.686;5.138;2023-03-14T03:58:08;98964.56;;;9.45;80.64
77062;BME280;65989;51.686;5.138;2023-03-14T04:00:34;98974.06;;;9.46;80.67
77062;BME280;65989;51.686;5.138;2023-03-14T04:02:59;98976.53;;;9.42;80.70
77062;BME280;65989;51.686;5.138;2023-03-14T04:05:25;98974.66;;;9.43;80.46
77062;BME280;65989;51.686;5.138;2023-03-14T04:07:51;98969.84;;;9.45;80.46
77062;BME280;65989;51.686;5.138;2023-03-14T04:10:16;98965.63;;;9.44;80.67
77062;BME280;65989;51.686;5.138;2023-03-14T04:12:42;98960.94;;;9.40;80.53
77062;BME280;65989;51.686;5.138;2023-03-14T04:15:08;98969.16;;;9.39;80.76
77062;BME280;65989;51.686;5.138;2023-03-14T04:17:33;98951.75;;;9.38;80.47
77062;BME280;65989;51.686;5.138;2023-03-14T04:19:58;98962.81;;;9.40;80.66
77062;BME280;65989;51.686;5.138;2023-03-14T04:22:24;98961.13;;;9.44;80.64
77062;BME280;65989;51.686;5.138;2023-03-14T04:24:49;98951.44;;;9.39;80.63
77062;BME280;65989;51.686;5.138;2023-03-14T04:27:15;98950.94;;;9.37;80.77
77062;BME280;65989;51.686;5.138;2023-03-14T04:29:43;98949.38;;;9.36;80.87
77062;BME280;65989;51.686;5.138;2023-03-14T04:32:09;98947.31;;;9.33;80.93
77062;BME280;65989;51.686;5.138;2023-03-14T04:34:34;98949.19;;;9.33;81.19
77062;BME280;65989;51.686;5.138;2023-03-14T04:37:00;98954.25;;;9.29;81.13
77062;BME280;65989;51.686;5.138;2023-03-14T04:39:25;98952.69;;;9.28;81.29
77062;BME280;65989;51.686;5.138;2023-03-14T04:41:51;98957.97;;;9.28;81.52
77062;BME280;65989;51.686;5.138;2023-03-14T04:44:17;98957.97;;;9.28;81.48
77062;BME280;65989;51.686;5.138;2023-03-14T04:46:42;98957.69;;;9.30;81.49
77062;BME280;65989;51.686;5.138;2023-03-14T04:49:07;98951.50;;;9.34;81.63
77062;BME280;65989;51.686;5.138;2023-03-14T04:51:33;98960.25;;;9.35;81.80
77062;BME280;65989;51.686;5.138;2023-03-14T04:53:58;98947.81;;;9.35;81.85
77062;BME280;65989;51.686;5.138;2023-03-14T04:56:23;98948.28;;;9.37;82.09
77062;BME280;65989;51.686;5.138;2023-03-14T04:58:49;98939.88;;;9.35;82.13
77062;BME280;65989;51.686;5.138;2023-03-14T05:01:14;98943.00;;;9.37;82.14
77062;BME280;65989;51.686;5.138;2023-03-14T05:03:40;98938.78;;;9.36;82.27
77062;BME280;65989;51.686;5.138;2023-03-14T05:06:05;98940.84;;;9.39;82.33
77062;BME280;65989;51.686;5.138;2023-03-14T05:08:31;98932.44;;;9.37;82.62
77062;BME280;65989;51.686;5.138;2023-03-14T05:10:57;98939.28;;;9.38;82.56
77062;BME280;65989;51.686;5.138;2023-03-14T05:13:23;98934.81;;;9.39;82.66
77062;BME280;65989;51.686;5.138;2023-03-14T05:15:49;98922.94;;;9.36;82.79
77062;BME280;65989;51.686;5.138;2023-03-14T05:18:16;98921.38;;;9.35;82.72
77062;BME280;65989;51.686;5.138;2023-03-14T05:20:41;98934.41;;;9.32;83.16
77062;BME280;65989;51.686;5.138;2023-03-14T05:23:09;98922.34;;;9.25;83.38
77062;BME280;65989;51.686;5.138;2023-03-14T05:25:34;98917.44;;;9.19;83.62
77062;BME280;65989;51.686;5.138;2023-03-14T05:27:59;98916.03;;;9.07;83.90
77062;BME280;65989;51.686;5.138;2023-03-14T05:30:25;98921.91;;;9.04;84.00
77062;BME280;65989;51.686;5.138;2023-03-14T05:32:50;98908.78;;;8.99;84.18
77062;BME280;65989;51.686;5.138;2023-03-14T05:35:16;98919.63;;;8.98;84.73
77062;BME280;65989;51.686;5.138;2023-03-14T05:37:41;98918.84;;;8.97;84.98
77062;BME280;65989;51.686;5.138;2023-03-14T05:40:07;98912.28;;;8.94;85.05
77062;BME280;65989;51.686;5.138;2023-03-14T05:42:33;98922.56;;;8.96;85.20
77062;BME280;65989;51.686;5.138;2023-03-14T05:44:59;98920.22;;;8.94;85.10
77062;BME280;65989;51.686;5.138;2023-03-14T05:47:24;98916.50;;;8.95;85.37
77062;BME280;65989;51.686;5.138;2023-03-14T05:49:50;98923.06;;;8.98;85.43
77062;BME280;65989;51.686;5.138;2023-03-14T05:52:16;98924.63;;;8.99;85.56
77062;BME280;65989;51.686;5.138;2023-03-14T05:54:42;98927.75;;;9.01;85.91
77062;BME280;65989;51.686;5.138;2023-03-14T05:57:07;98923.47;;;9.05;85.97
77062;BME280;65989;51.686;5.138;2023-03-14T05:59:32;98925.03;;;9.06;86.01
77062;BME280;65989;51.686;5.138;2023-03-14T06:01:58;98926.34;;;9.09;85.90
77062;BME280;65989;51.686;5.138;2023-03-14T06:04:24;98921.81;;;9.09;86.27
77062;BME280;65989;51.686;5.138;2023-03-14T06:06:50;98932.69;;;9.08;86.42
77062;BME280;65989;51.686;5.138;2023-03-14T06:09:15;98930.13;;;9.03;86.79
77062;BME280;65989;51.686;5.138;2023-03-14T06:11:41;98925.19;;;8.96;86.75
77062;BME280;65989;51.686;5.138;2023-03-14T06:14:06;98930.59;;;8.91;87.09
77062;BME280;65989;51.686;5.138;2023-03-14T06:16:32;98929.88;;;8.85;87.34
77062;BME280;65989;51.686;5.138;2023-03-14T06:18:57;98927.53;;;8.84;87.73
77062;BME280;65989;51.686;5.138;2023-03-14T06:21:23;98929.66;;;8.81;88.02
77062;BME280;65989;51.686;5.138;2023-03-14T06:23:48;98928.09;;;8.80;88.05
77062;BME280;65989;51.686;5.138;2023-03-14T06:26:13;98924.66;;;8.80;88.58
77062;BME280;65989;51.686;5.138;2023-03-14T06:28:39;98938.09;;;8.84;88.67
77062;BME280;65989;51.686;5.138;2023-03-14T06:31:05;98923.81;;;8.85;88.88
77062;BME280;65989;51.686;5.138;2023-03-14T06:33:30;98921.94;;;8.85;88.82
77062;BME280;65989;51.686;5.138;2023-03-14T06:35:56;98927.53;;;8.84;89.13
77062;BME280;65989;51.686;5.138;2023-03-14T06:38:21;98930.16;;;8.84;89.20
77062;BME280;65989;51.686;5.138;2023-03-14T06:40:46;98935.72;;;8.82;89.40
77062;BME280;65989;51.686;5.138;2023-03-14T06:43:12;98933.31;;;8.86;89.48
77062;BME280;65989;51.686;5.138;2023-03-14T06:45:37;98930.66;;;8.86;89.78
77062;BME280;65989;51.686;5.138;2023-03-14T06:48:03;98946.50;;;8.86;89.83
77062;BME280;65989;51.686;5.138;2023-03-14T06:50:28;99022.31;;;8.85;90.03
77062;BME280;65989;51.686;5.138;2023-03-14T06:52:54;99025.75;;;8.66;89.84
77062;BME280;65989;51.686;5.138;2023-03-14T06:55:19;99031.22;;;8.51;89.84
77062;BME280;65989;51.686;5.138;2023-03-14T06:57:46;99041.59;;;8.42;89.88
77062;BME280;65989;51.686;5.138;2023-03-14T07:00:12;99054.91;;;8.32;89.97
77062;BME280;65989;51.686;5.138;2023-03-14T07:02:38;99067.72;;;8.19;89.78
77062;BME280;65989;51.686;5.138;2023-03-14T07:05:03;99078.97;;;8.01;89.73
77062;BME280;65989;51.686;5.138;2023-03-14T07:07:29;99088.88;;;7.85;89.60
77062;BME280;65989;51.686;5.138;2023-03-14T07:09:54;99102.41;;;7.78;90.04
77062;BME280;65989;51.686;5.138;2023-03-14T07:12:20;99102.44;;;7.73;90.12
77062;BME280;65989;51.686;5.138;2023-03-14T07:14:45;99108.03;;;7.66;90.19
77062;BME280;65989;51.686;5.138;2023-03-14T07:17:11;99114.63;;;7.63;90.08
77062;BME280;65989;51.686;5.138;2023-03-14T07:19:36;99126.81;;;7.59;90.35
77062;BME280;65989;51.686;5.138;2023-03-14T07:22:03;99137.94;;;7.51;90.18
77062;BME280;65989;51.686;5.138;2023-03-14T07:24:29;99140.31;;;7.47;90.38
77062;BME280;65989;51.686;5.138;2023-03-14T07:26:54;99148.22;;;7.47;90.41
77062;BME280;65989;51.686;5.138;2023-03-14T07:29:20;99154.81;;;7.50;90.53
77062;BME280;65989;51.686;5.138;2023-03-14T07:31:45;99158.22;;;7.51;90.61
77062;BME280;65989;51.686;5.138;2023-03-14T07:34:10;99171.63;;;7.59;90.74
77062;BME280;65989;51.686;5.138;2023-03-14T07:36:36;99176.84;;;7.65;90.90
77062;BME280;65989;51.686;5.138;2023-03-14T07:39:01;99180.50;;;7.69;91.04
77062;BME280;65989;51.686;5.138;2023-03-14T07:41:27;99196.03;;;7.75;91.03
77062;BME280;65989;51.686;5.138;2023-03-14T07:43:52;99191.31;;;7.72;91.12
77062;BME280;65989;51.686;5.138;2023-03-14T07:46:17;99208.94;;;7.77;91.30
77062;BME280;65989;51.686;5.138;2023-03-14T07:48:43;99229.53;;;7.70;91.04
77062;BME280;65989;51.686;5.138;2023-03-14T07:51:09;99244.84;;;7.62;91.04
77062;BME280;65989;51.686;5.138;2023-03-14T07:53:34;99241.25;;;7.53;90.97
77062;BME280;65989;51.686;5.138;2023-03-14T07:56:00;99259.72;;;7.43;90.98
77062;BME280;65989;51.686;5.138;2023-03-14T07:58:25;99256.56;;;7.41;90.63
77062;BME280;65989;51.686;5.138;2023-03-14T08:00:51;99265.22;;;7.46;90.60
77062;BME280;65989;51.686;5.138;2023-03-14T08:03:17;99272.88;;;7.53;90.70
77062;BME280;65989;51.686;5.138;2023-03-14T08:05:42;99280.69;;;7.63;90.78
77062;BME280;65989;51.686;5.138;2023-03-14T08:08:08;99289.59;;;7.78;90.52
77062;BME280;65989;51.686;5.138;2023-03-14T08:10:33;99299.63;;;7.81;90.61
77062;BME280;65989;51.686;5.138;2023-03-14T08:13:00;99308.03;;;7.83;90.62
77062;BME280;65989;51.686;5.138;2023-03-14T08:15:26;99319.66;;;7.82;90.48
77062;BME280;65989;51.686;5.138;2023-03-14T08:17:52;99318.81;;;7.87;90.69
77062;BME280;65989;51.686;5.138;2023-03-14T08:20:20;99335.44;;;7.87;90.50
77062;BME280;65989;51.686;5.138;2023-03-14T08:22:45;99348.31;;;7.94;90.55
77062;BME280;65989;51.686;5.138;2023-03-14T08:25:11;99346.72;;;7.98;90.56
77062;BME280;65989;51.686;5.138;2023-03-14T08:27:36;99362.22;;;8.10;90.18
77062;BME280;65989;51.686;5.138;2023-03-14T08:30:05;99370.13;;;8.15;90.49
77062;BME280;65989;51.686;5.138;2023-03-14T08:32:31;99377.19;;;8.25;90.03
77062;BME280;65989;51.686;5.138;2023-03-14T08:34:57;99380.88;;;8.24;90.05
77062;BME280;65989;51.686;5.138;2023-03-14T08:37:22;99392.44;;;8.33;90.08
77062;BME280;65989;51.686;5.138;2023-03-14T08:39:49;99394.28;;;8.33;90.05
77062;BME280;65989;51.686;5.138;2023-03-14T08:42:14;99407.44;;;8.38;89.83
77062;BME280;65989;51.686;5.138;2023-03-14T08:44:40;99409.56;;;8.36;89.73
77062;BME280;65989;51.686;5.138;2023-03-14T08:47:05;99421.69;;;8.37;89.77
77062;BME280;65989;51.686;5.138;2023-03-14T08:49:30;99433.59;;;8.40;89.46
77062;BME280;65989;51.686;5.138;2023-03-14T08:51:56;99450.50;;;8.33;89.45
77062;BME280;65989;51.686;5.138;2023-03-14T08:54:21;99455.59;;;8.19;89.57
77062;BME280;65989;51.686;5.138;2023-03-14T08:56:46;99467.75;;;8.10;89.45
77062;BME280;65989;51.686;5.138;2023-03-14T08:59:12;99482.09;;;7.83;88.92
77062;BME280;65989;51.686;5.138;2023-03-14T09:01:37;99488.97;;;7.74;89.32
77062;BME280;65989;51.686;5.138;2023-03-14T09:04:03;99499.28;;;7.60;89.07
77062;BME280;65989;51.686;5.138;2023-03-14T09:06:28;99517.75;;;7.39;88.74
77062;BME280;65989;51.686;5.138;2023-03-14T09:08:54;99546.47;;;7.25;87.98
77062;BME280;65989;51.686;5.138;2023-03-14T09:11:19;99559.81;;;6.82;87.64
77062;BME280;65989;51.686;5.138;2023-03-14T09:13:44;99564.75;;;6.63;87.58
77062;BME280;65989;51.686;5.138;2023-03-14T09:16:10;99579.69;;;6.47;87.80
77062;BME280;65989;51.686;5.138;2023-03-14T09:18:36;99591.38;;;6.67;87.53
77062;BME280;65989;51.686;5.138;2023-03-14T09:21:02;99600.22;;;6.40;87.42
77062;BME280;65989;51.686;5.138;2023-03-14T09:23:27;99622.66;;;6.63;87.13
77062;BME280;65989;51.686;5.138;2023-03-14T09:25:56;99637.81;;;6.40;86.65
77062;BME280;65989;51.686;5.138;2023-03-14T09:28:22;99657.44;;;6.22;86.54
77062;BME280;65989;51.686;5.138;2023-03-14T09:30:47;99657.63;;;6.10;86.18
77062;BME280;65989;51.686;5.138;2023-03-14T09:33:13;99660.63;;;5.97;86.43
77062;BME280;65989;51.686;5.138;2023-03-14T09:35:38;99673.28;;;5.95;86.11
77062;BME280;65989;51.686;5.138;2023-03-14T09:38:03;99683.44;;;6.13;86.07
77062;BME280;65989;51.686;5.138;2023-03-14T09:40:35;99704.56;;;6.24;86.09
77062;BME280;65989;51.686;5.138;2023-03-14T09:43:01;99703.00;;;6.28;85.20
77062;BME280;65989;51.686;5.138;2023-03-14T09:45:38;99716.25;;;6.43;85.67
77062;BME280;65989;51.686;5.138;2023-03-14T09:48:08;99722.31;;;6.44;84.86
77062;BME280;65989;51.686;5.138;2023-03-14T09:50:40;99731.22;;;6.38;83.93
77062;BME280;65989;51.686;5.138;2023-03-14T09:53:13;99732.00;;;6.38;83.49
77062;BME280;65989;51.686;5.138;2023-03-14T09:55:39;99743.00;;;6.30;83.29
77062;BME280;65989;51.686;5.138;2023-03-14T09:58:13;99756.50;;;6.39;83.98
77062;BME280;65989;51.686;5.138;2023-03-14T10:00:39;99767.44;;;6.58;83.76
77062;BME280;65989;51.686;5.138;2023-03-14T10:05:36;99778.50;;;6.60;83.04
77062;BME280;65989;51.686;5.138;2023-03-14T10:08:01;99802.28;;;6.76;82.98
77062;BME280;65989;51.686;5.138;2023-03-14T10:10:27;99825.22;;;6.80;82.24
77062;BME280;65989;51.686;5.138;2023-03-14T10:13:05;99820.03;;;6.91;81.46
77062;BME280;65989;51.686;5.138;2023-03-14T10:15:34;99846.13;;;6.97;81.01
77062;BME280;65989;51.686;5.138;2023-03-14T10:18:02;99840.13;;;7.02;80.80
77062;BME280;65989;51.686;5.138;2023-03-14T10:20:33;99847.22;;;7.01;80.26
77062;BME280;65989;51.686;5.138;2023-03-14T10:23:01;99854.91;;;7.08;79.22
77062;BME280;65989;51.686;5.138;2023-03-14T10:25:32;99882.09;;;7.14;78.97
77062;BME280;65989;51.686;5.138;2023-03-14T10:27:59;99862.97;;;6.91;77.80
77062;BME280;65989;51.686;5.138;2023-03-14T10:30:47;99886.69;;;6.96;78.03
77062;BME280;65989;51.686;5.138;2023-03-14T10:36:01;99909.28;;;7.25;77.42
77062;BME280;65989;51.686;5.138;2023-03-14T10:38:30;99924.00;;;7.58;77.50
77062;BME280;65989;51.686;5.138;2023-03-14T10:40:56;99927.22;;;7.71;76.82
77062;BME280;65989;51.686;5.138;2023-03-14T10:43:25;99933.75;;;7.63;76.16
77062;BME280;65989;51.686;5.138;2023-03-14T10:45:57;99950.63;;;7.62;75.98
77062;BME280;65989;51.686;5.138;2023-03-14T10:53:24;99974.63;;;7.60;75.00
77062;BME280;65989;51.686;5.138;2023-03-14T10:55:50;99983.50;;;7.49;75.64
77062;BME280;65989;51.686;5.138;2023-03-14T10:58:27;99994.78;;;7.39;76.08
77062;BME280;65989;51.686;5.138;2023-03-14T11:04:02;100037.63;;;7.24;76.92
77062;BME280;65989;51.686;5.138;2023-03-14T11:12:01;100074.53;;;6.52;76.62
77062;BME280;65989;51.686;5.138;2023-03-14T11:14:34;100068.09;;;6.65;75.96
77062;BME280;65989;51.686;5.138;2023-03-14T11:17:16;100086.03;;;6.68;75.68
77062;BME280;65989;51.686;5.138;2023-03-14T11:22:51;100104.38;;;7.08;74.80
77062;BME280;65989;51.686;5.138;2023-03-14T11:28:36;100118.25;;;7.25;74.37
77062;BME280;65989;51.686;5.138;2023-03-14T11:33:47;100128.09;;;7.08;73.37
77062;BME280;65989;51.686;5.138;2023-03-14T11:36:48;100140.53;;;6.90;74.18
77062;BME280;65989;51.686;5.138;2023-03-14T11:39:18;100146.97;;;6.77;74.12
77062;BME280;65989;51.686;5.138;2023-03-14T11:41:50;100156.97;;;6.75;74.57
77062;BME280;65989;51.686;5.138;2023-03-14T11:44:26;100157.13;;;6.68;74.51
77062;BME280;65989;51.686;5.138;2023-03-14T11:47:02;100168.81;;;6.78;74.17
77062;BME280;65989;51.686;5.138;2023-03-14T11:49:38;100169.81;;;6.94;74.52
77062;BME280;65989;51.686;5.138;2023-03-14T11:52:13;100168.97;;;7.10;73.58
77062;BME280;65989;51.686;5.138;2023-03-14T11:55:05;100183.75;;;7.16;73.17
77062;BME280;65989;51.686;5.138;2023-03-14T11:57:32;100187.81;;;7.24;72.91
77062;BME280;65989;51.686;5.138;2023-03-14T12:00:05;100189.22;;;7.32;72.69
77062;BME280;65989;51.686;5.138;2023-03-14T12:02:49;100190.22;;;7.53;72.57
77062;BME280;65989;51.686;5.138;2023-03-14T12:05:30;100191.47;;;7.73;71.92
77062;BME280;65989;51.686;5.138;2023-03-14T12:10:45;100200.78;;;8.13;71.30
77062;BME280;65989;51.686;5.138;2023-03-14T12:13:14;100212.66;;;8.11;70.55
77062;BME280;65989;51.686;5.138;2023-03-14T12:15:50;100224.69;;;8.01;69.35
77062;BME280;65989;51.686;5.138;2023-03-14T12:20:56;100228.13;;;8.02;68.08
77062;BME280;65989;51.686;5.138;2023-03-14T12:23:23;100224.44;;;8.03;67.56
77062;BME280;65989;51.686;5.138;2023-03-14T12:26:07;100245.34;;;8.10;66.87
77062;BME280;65989;51.686;5.138;2023-03-14T12:28:39;100245.16;;;7.89;65.55
77062;BME280;65989;51.686;5.138;2023-03-14T12:39:38;100266.69;;;7.53;60.41
77062;BME280;65989;51.686;5.138;2023-03-14T12:45:21;100274.47;;;7.43;57.82
77062;BME280;65989;51.686;5.138;2023-03-14T12:47:52;100294.59;;;7.49;57.91
77062;BME280;65989;51.686;5.138;2023-03-14T12:50:21;100290.72;;;7.57;55.92
77062;BME280;65989;51.686;5.138;2023-03-14T12:58:47;100298.53;;;7.74;56.82
77062;BME280;65989;51.686;5.138;2023-03-14T13:01:19;100318.97;;;7.84;54.33
77062;BME280;65989;51.686;5.138;2023-03-14T13:03:52;100325.88;;;7.90;53.81
77062;BME280;65989;51.686;5.138;2023-03-14T13:12:00;100346.13;;;8.06;54.33
77062;BME280;65989;51.686;5.138;2023-03-14T13:14:31;100354.31;;;8.10;53.96
77062;BME280;65989;51.686;5.138;2023-03-14T13:17:01;100353.78;;;8.08;52.68
77062;BME280;65989;51.686;5.138;2023-03-14T13:19:28;100369.31;;;8.04;52.91
77062;BME280;65989;51.686;5.138;2023-03-14T13:22:04;100375.28;;;7.95;53.48
77062;BME280;65989;51.686;5.138;2023-03-14T13:24:33;100377.94;;;7.95;52.59
77062;BME280;65989;51.686;5.138;2023-03-14T13:26:59;100376.06;;;7.95;53.84
77062;BME280;65989;51.686;5.138;2023-03-14T13:29:27;100382.44;;;7.99;53.96
77062;BME280;65989;51.686;5.138;2023-03-14T13:31:55;100384.16;;;8.11;52.79
77062;BME280;65989;51.686;5.138;2023-03-14T13:34:32;100403.28;;;8.23;52.79
77062;BME280;65989;51.686;5.138;2023-03-14T13:36:58;100410.00;;;8.36;50.12
77062;BME280;65989;51.686;5.138;2023-03-14T13:39:25;100410.03;;;8.14;52.34
77062;BME280;65989;51.686;5.138;2023-03-14T13:41:59;100412.38;;;8.10;52.15
77062;BME280;65989;51.686;5.138;2023-03-14T13:44:29;100422.94;;;8.10;52.14
77062;BME280;65989;51.686;5.138;2023-03-14T13:46:59;100430.63;;;7.89;53.02
77062;BME280;65989;51.686;5.138;2023-03-14T13:49:25;100444.78;;;7.83;52.54
77062;BME280;65989;51.686;5.138;2023-03-14T13:51:52;100436.81;;;7.78;52.54
77062;BME280;65989;51.686;5.138;2023-03-14T13:54:18;100449.22;;;7.77;53.81
77062;BME280;65989;51.686;5.138;2023-03-14T13:56:45;100460.06;;;7.81;53.39
77062;BME280;65989;51.686;5.138;2023-03-14T13:59:24;100468.53;;;7.83;53.56
77062;BME280;65989;51.686;5.138;2023-03-14T14:01:50;100478.59;;;7.86;53.87
77062;BME280;65989;51.686;5.138;2023-03-14T14:04:19;100487.44;;;7.97;53.63
77062;BME280;65989;51.686;5.138;2023-03-14T14:06:56;100496.75;;;8.05;52.79
77062;BME280;65989;51.686;5.138;2023-03-14T14:09:27;100502.28;;;8.03;50.90
77062;BME280;65989;51.686;5.138;2023-03-14T14:12:02;100499.88;;;8.02;52.18
77062;BME280;65989;51.686;5.138;2023-03-14T14:16:59;100532.50;;;8.35;50.54
77062;BME280;65989;51.686;5.138;2023-03-14T14:19:28;100538.47;;;8.47;48.29